Time;durP1;ratioP1;P1;durP2;ratioP2;P2;SDS_P1;SDS_P2;PMS_P1;PMS_P2;Temp;Humidity;BMP_temperature;BMP_pressure;BME280_temperature;BME280_humidity;BME280_pressure;Samples;Min_cycle;Max_cycle;Signal;HPM_P1;HPM_P2
2023/10/20 00:01:12;;;;;;;43.55;25.45;;;9.30;99.90;;;;;;5006475;28;20030;-83
2023/10/20 00:03:38;;;;;;;42.05;25.95;;;9.30;99.90;;;;;;5016066;28;20041;-83
2023/10/20 00:06:04;;;;;;;48.85;26.67;;;9.30;99.90;;;;;;5012441;28;20048;-83
2023/10/20 00:08:31;;;;;;;39.80;23.95;;;9.30;99.90;;;;;;4994209;28;20050;-83
2023/10/20 00:11:07;;;;;;;44.63;25.90;;;9.30;99.90;;;;;;4990285;28;20046;-84
2023/10/20 00:13:33;;;;;;;50.78;26.95;;;9.30;99.90;;;;;;5000186;28;20217;-84
2023/10/20 00:15:59;;;;;;;45.53;25.10;;;9.30;99.90;;;;;;5001858;28;20038;-83
2023/10/20 00:18:24;;;;;;;46.60;25.40;;;9.30;99.90;;;;;;5005208;28;20042;-83
2023/10/20 00:20:50;;;;;;;46.75;25.00;;;9.20;99.90;;;;;;5010403;28;20046;-83
2023/10/20 00:23:16;;;;;;;50.22;25.67;;;9.20;99.90;;;;;;5014592;28;20065;-83
2023/10/20 00:25:43;;;;;;;48.30;24.88;;;9.20;99.90;;;;;;5004449;28;20042;-83
2023/10/20 00:28:09;;;;;;;45.95;25.58;;;9.20;99.90;;;;;;4996592;28;20046;-83
2023/10/20 00:30:35;;;;;;;45.97;25.17;;;9.30;99.90;;;;;;5013417;28;20036;-84
2023/10/20 00:33:01;;;;;;;43.10;24.05;;;9.20;99.90;;;;;;4990357;28;20046;-84
2023/10/20 00:35:27;;;;;;;46.95;24.60;;;9.20;99.90;;;;;;4994826;28;20382;-84
2023/10/20 00:37:53;;;;;;;39.55;23.42;;;9.20;99.90;;;;;;4998862;28;20081;-84
2023/10/20 00:40:22;;;;;;;41.72;23.73;;;9.20;99.90;;;;;;4992758;28;20394;-84
2023/10/20 00:42:47;;;;;;;43.75;23.50;;;9.10;99.90;;;;;;4997929;28;20474;-84
2023/10/20 00:45:13;;;;;;;42.80;24.05;;;9.20;99.90;;;;;;4992186;28;20056;-83
2023/10/20 00:47:39;;;;;;;47.15;25.65;;;9.20;99.90;;;;;;4988499;28;20058;-83
2023/10/20 00:50:08;;;;;;;40.95;23.52;;;9.20;99.90;;;;;;4990840;28;20061;-83
2023/10/20 00:52:37;;;;;;;45.47;24.30;;;9.20;99.90;;;;;;5005182;28;20140;-84
2023/10/20 00:55:07;;;;;;;42.47;22.90;;;9.20;99.90;;;;;;4993285;28;20049;-83
2023/10/20 00:57:34;;;;;;;41.10;23.58;;;9.20;99.90;;;;;;4996024;28;20743;-83
2023/10/20 01:00:00;;;;;;;38.85;24.23;;;9.10;99.90;;;;;;4999063;28;20041;-84
2023/10/20 01:02:25;;;;;;;41.75;22.70;;;9.10;99.90;;;;;;5104505;27;20092;-84
2023/10/20 01:04:51;;;;;;;37.70;23.20;;;9.10;99.90;;;;;;5096014;27;20054;-84
2023/10/20 01:07:17;;;;;;;52.70;23.95;;;9.10;99.90;;;;;;4992648;28;20038;-83
2023/10/20 01:09:43;;;;;;;41.40;23.63;;;9.10;99.90;;;;;;5032035;28;20046;-84
2023/10/20 01:12:09;;;;;;;40.97;23.63;;;9.10;99.90;;;;;;5019491;28;20054;-84
2023/10/20 01:14:35;;;;;;;44.50;23.77;;;9.10;99.90;;;;;;5019522;28;20104;-84
2023/10/20 01:17:01;;;;;;;43.17;24.10;;;9.10;99.90;;;;;;5002972;28;20046;-84
2023/10/20 01:19:27;;;;;;;45.03;24.17;;;9.10;99.90;;;;;;4993791;28;20056;-84
2023/10/20 01:21:53;;;;;;;49.75;23.88;;;9.10;99.90;;;;;;4996938;28;20038;-85
2023/10/20 01:24:19;;;;;;;51.80;23.98;;;9.00;99.90;;;;;;5009514;28;20101;-83
2023/10/20 01:26:44;;;;;;;47.08;25.38;;;9.00;99.90;;;;;;5004838;28;20119;-84
2023/10/20 01:29:12;;;;;;;45.20;23.85;;;9.00;99.90;;;;;;5041811;28;20111;-84
2023/10/20 01:31:38;;;;;;;43.20;25.23;;;9.00;99.90;;;;;;5000671;28;20049;-84
2023/10/20 01:34:05;;;;;;;42.20;24.10;;;9.00;99.90;;;;;;5010246;28;20088;-84
2023/10/20 01:36:30;;;;;;;41.55;23.00;;;9.00;99.90;;;;;;5004661;28;20053;-84
2023/10/20 01:38:56;;;;;;;46.05;23.50;;;9.00;99.90;;;;;;5011218;28;20526;-83
2023/10/20 01:41:23;;;;;;;39.63;23.88;;;9.00;99.90;;;;;;4993587;28;20046;-83
2023/10/20 01:43:48;;;;;;;45.53;25.02;;;9.00;99.90;;;;;;5002352;28;20068;-83
2023/10/20 01:46:14;;;;;;;40.28;23.85;;;9.00;99.90;;;;;;4990384;28;20073;-84
2023/10/20 01:48:39;;;;;;;39.17;23.33;;;9.00;99.90;;;;;;4997370;28;20101;-83
2023/10/20 01:51:05;;;;;;;41.08;24.73;;;9.00;99.90;;;;;;4992331;28;20129;-83
2023/10/20 01:53:31;;;;;;;45.08;25.00;;;9.00;99.90;;;;;;5100639;27;20065;-83
2023/10/20 01:55:56;;;;;;;46.25;24.17;;;9.00;99.90;;;;;;5009043;28;20385;-84
2023/10/20 01:58:22;;;;;;;50.10;25.58;;;9.00;99.90;;;;;;5005077;28;20370;-83
2023/10/20 02:00:52;;;;;;;46.40;24.77;;;9.00;99.90;;;;;;4989034;28;20068;-84
2023/10/20 02:03:19;;;;;;;45.60;25.05;;;9.00;99.90;;;;;;4988156;28;20030;-84
2023/10/20 02:05:46;;;;;;;45.38;24.08;;;9.00;99.90;;;;;;5107584;27;20064;-83
2023/10/20 02:08:11;;;;;;;42.85;24.00;;;8.90;99.90;;;;;;4993116;28;20079;-83
2023/10/20 02:10:37;;;;;;;39.00;24.63;;;8.90;99.90;;;;;;4987620;28;20042;-83
2023/10/20 02:13:03;;;;;;;41.35;23.45;;;8.90;99.90;;;;;;4988309;28;20034;-84
2023/10/20 02:15:29;;;;;;;48.17;25.27;;;8.90;99.90;;;;;;5004052;28;20048;-83
2023/10/20 02:17:56;;;;;;;39.75;24.75;;;8.90;99.90;;;;;;4999165;28;20049;-83
2023/10/20 02:20:23;;;;;;;39.03;22.87;;;8.90;99.90;;;;;;4995425;28;20050;-83
2023/10/20 02:22:52;;;;;;;41.55;24.42;;;8.90;99.90;;;;;;5094129;27;20157;-83
2023/10/20 02:25:19;;;;;;;42.25;23.95;;;8.90;99.90;;;;;;5002633;28;20366;-83
2023/10/20 02:27:47;;;;;;;44.85;24.20;;;8.90;99.90;;;;;;5102713;27;20469;-83
2023/10/20 02:30:14;;;;;;;45.75;24.10;;;8.90;99.90;;;;;;4982845;28;20133;-83
2023/10/20 02:32:41;;;;;;;45.33;24.13;;;8.90;99.90;;;;;;4997776;28;20050;-83
2023/10/20 02:35:08;;;;;;;42.45;24.35;;;8.90;99.90;;;;;;4989157;28;20038;-83
2023/10/20 02:37:34;;;;;;;43.63;25.00;;;8.90;99.90;;;;;;4986948;28;20457;-83
2023/10/20 02:40:04;;;;;;;43.05;24.00;;;8.90;99.90;;;;;;4996841;28;20058;-83
2023/10/20 02:42:30;;;;;;;42.60;24.77;;;8.90;99.90;;;;;;5088841;28;20200;-84
2023/10/20 02:44:56;;;;;;;41.33;24.63;;;8.90;99.90;;;;;;4993614;28;20054;-84
2023/10/20 02:47:22;;;;;;;43.42;24.10;;;8.80;99.90;;;;;;4994782;28;20050;-84
2023/10/20 02:49:53;;;;;;;40.55;24.10;;;8.80;99.90;;;;;;4999384;28;20050;-84
2023/10/20 02:52:19;;;;;;;43.80;25.10;;;8.80;99.90;;;;;;5007790;28;20054;-84
2023/10/20 02:54:44;;;;;;;41.70;25.00;;;8.80;99.90;;;;;;5001532;28;20034;-85
2023/10/20 02:57:10;;;;;;;43.88;24.52;;;8.80;99.90;;;;;;5003318;28;20041;-84
2023/10/20 02:59:36;;;;;;;40.03;23.52;;;8.80;99.90;;;;;;4994564;28;20121;-84
2023/10/20 03:02:01;;;;;;;43.47;24.73;;;8.90;99.90;;;;;;5004847;28;20744;-84
2023/10/20 03:04:27;;;;;;;40.22;24.08;;;8.80;99.90;;;;;;5018157;28;20059;-84
2023/10/20 03:06:52;;;;;;;39.90;24.20;;;8.80;99.90;;;;;;4995452;28;20493;-84
2023/10/20 03:09:18;;;;;;;40.25;24.33;;;8.80;99.90;;;;;;4999101;28;20049;-84
2023/10/20 03:11:44;;;;;;;39.88;23.38;;;8.80;99.90;;;;;;4992665;28;20807;-84
2023/10/20 03:14:10;;;;;;;40.67;23.95;;;8.80;99.90;;;;;;4993640;28;20038;-85
2023/10/20 03:16:42;;;;;;;38.33;22.83;;;8.80;99.90;;;;;;4989636;28;20104;-84
2023/10/20 03:19:09;;;;;;;40.30;22.67;;;8.80;99.90;;;;;;5007362;28;20610;-84
2023/10/20 03:21:35;;;;;;;34.92;22.00;;;8.80;99.90;;;;;;5099519;27;20054;-84
2023/10/20 03:24:00;;;;;;;41.03;23.58;;;8.80;99.90;;;;;;5093075;27;20394;-84
2023/10/20 03:26:26;;;;;;;37.08;22.80;;;8.80;99.90;;;;;;4995124;28;20396;-84
2023/10/20 03:28:52;;;;;;;37.17;22.48;;;8.80;99.90;;;;;;5092616;27;20061;-84
2023/10/20 03:31:17;;;;;;;34.78;22.05;;;8.80;99.90;;;;;;4993901;28;20072;-84
2023/10/20 03:33:43;;;;;;;39.40;21.70;;;8.80;99.90;;;;;;5003926;28;20050;-85
2023/10/20 03:36:09;;;;;;;41.17;21.77;;;8.80;99.90;;;;;;5095418;27;20632;-84
2023/10/20 03:38:34;;;;;;;38.53;21.23;;;8.80;99.90;;;;;;5004202;28;20140;-84
2023/10/20 03:41:10;;;;;;;40.00;22.58;;;8.80;99.90;;;;;;4995124;28;20042;-84
2023/10/20 03:43:36;;;;;;;41.90;23.40;;;8.80;99.90;;;;;;4992790;28;20137;-84
2023/10/20 03:46:03;;;;;;;34.08;20.95;;;8.80;99.90;;;;;;5003377;28;20095;-84
2023/10/20 03:48:29;;;;;;;38.67;23.05;;;8.70;99.90;;;;;;5000797;28;20161;-87
2023/10/20 03:50:55;;;;;;;43.22;23.30;;;8.70;99.90;;;;;;4995221;28;20642;-85
2023/10/20 03:53:22;;;;;;;41.42;21.92;;;8.80;99.90;;;;;;5002588;28;20436;-85
2023/10/20 03:56:04;;;;;;;40.90;22.33;;;8.80;99.90;;;;;;5002829;28;20049;-84
2023/10/20 03:58:30;;;;;;;36.25;22.08;;;8.70;99.90;;;;;;4994279;28;20124;-84
2023/10/20 04:00:57;;;;;;;41.15;22.77;;;8.70;99.90;;;;;;5005762;28;20040;-85
2023/10/20 04:03:26;;;;;;;45.13;22.23;;;8.70;99.90;;;;;;4999427;28;20565;-84
2023/10/20 04:05:52;;;;;;;36.15;21.27;;;8.70;99.90;;;;;;5006535;28;20077;-84
2023/10/20 04:08:19;;;;;;;40.45;23.00;;;8.70;99.90;;;;;;5002231;28;20034;-84
2023/10/20 04:10:44;;;;;;;38.00;22.23;;;8.70;99.90;;;;;;4997656;28;20095;-85
2023/10/20 04:13:12;;;;;;;40.80;22.77;;;8.70;99.90;;;;;;4999621;28;20398;-84
2023/10/20 04:15:39;;;;;;;39.53;21.70;;;8.70;99.90;;;;;;4990792;28;20099;-85
2023/10/20 04:18:05;;;;;;;36.63;22.10;;;8.70;99.90;;;;;;5103357;27;20038;-85
2023/10/20 04:20:37;;;;;;;38.38;22.35;;;8.70;99.90;;;;;;5005808;28;20118;-85
2023/10/20 04:23:04;;;;;;;35.78;20.88;;;8.70;99.90;;;;;;4995587;28;20061;-85
2023/10/20 04:25:33;;;;;;;37.65;21.52;;;8.70;99.90;;;;;;5109412;27;20511;-86
2023/10/20 04:28:12;;;;;;;38.92;22.48;;;8.70;99.90;;;;;;5001244;28;20075;-85
2023/10/20 04:54:47;;;;;;;33.38;18.83;;;8.70;99.90;;;;;;5008606;28;20118;-85
2023/10/20 04:59:59;;;;;;;30.85;18.85;;;8.70;99.90;;;;;;4997475;28;20390;-84
2023/10/20 05:02:39;;;;;;;29.38;18.63;;;8.60;99.90;;;;;;4997088;28;20476;-84
2023/10/20 05:05:15;;;;;;;31.35;18.70;;;8.60;99.90;;;;;;4997074;28;20041;-84
2023/10/20 05:07:49;;;;;;;31.02;18.13;;;8.60;99.90;;;;;;4995556;28;20100;-84
2023/10/20 05:10:15;;;;;;;28.85;18.27;;;8.60;99.90;;;;;;4999545;28;20049;-84
2023/10/20 05:12:41;;;;;;;29.02;18.17;;;8.60;99.90;;;;;;5006654;28;20046;-84
2023/10/20 05:15:10;;;;;;;31.88;18.02;;;8.60;99.90;;;;;;4996721;28;20041;-85
2023/10/20 05:17:36;;;;;;;30.55;18.08;;;8.60;99.90;;;;;;5000713;28;20062;-84
2023/10/20 05:20:05;;;;;;;27.20;17.92;;;8.60;99.90;;;;;;4997446;28;20042;-84
2023/10/20 05:22:31;;;;;;;31.35;17.60;;;8.60;99.90;;;;;;4989156;28;20156;-84
2023/10/20 05:24:57;;;;;;;24.75;16.23;;;8.60;99.90;;;;;;5000823;28;20047;-84
2023/10/20 05:27:24;;;;;;;26.67;17.33;;;8.60;99.90;;;;;;5002232;28;20030;-84
2023/10/20 05:29:50;;;;;;;26.65;16.75;;;8.60;99.90;;;;;;5002550;28;20056;-84
2023/10/20 05:32:17;;;;;;;27.35;17.77;;;8.60;99.90;;;;;;5004687;28;20057;-82
2023/10/20 05:34:43;;;;;;;28.38;17.02;;;8.60;99.90;;;;;;5004733;28;20473;-84
2023/10/20 05:37:10;;;;;;;27.98;16.63;;;8.60;99.90;;;;;;5009491;28;20042;-90
2023/10/20 05:39:35;;;;;;;24.27;16.80;;;8.60;99.90;;;;;;4992580;28;20145;-89
2023/10/20 05:42:04;;;;;;;25.48;17.30;;;8.60;99.90;;;;;;5009510;28;20173;-90
2023/10/20 05:44:34;;;;;;;26.73;16.95;;;8.60;99.90;;;;;;5002908;28;20560;-89
2023/10/20 05:46:59;;;;;;;26.10;15.95;;;8.60;99.90;;;;;;5104994;27;20053;-89
2023/10/20 05:49:28;;;;;;;24.45;15.57;;;8.60;99.90;;;;;;4999012;28;20061;-81
2023/10/20 05:51:54;;;;;;;25.10;15.20;;;8.60;99.90;;;;;;5003646;28;20058;-90
2023/10/20 05:54:23;;;;;;;24.75;15.52;;;8.60;99.90;;;;;;5093002;27;20073;-89
2023/10/20 05:56:49;;;;;;;26.10;15.02;;;8.60;99.90;;;;;;4993363;28;20046;-90
2023/10/20 05:59:14;;;;;;;24.00;15.10;;;8.50;99.90;;;;;;5010786;28;20090;-89
2023/10/20 06:01:40;;;;;;;27.00;15.65;;;8.60;99.90;;;;;;5000433;28;21725;-90
2023/10/20 06:04:08;;;;;;;23.60;15.25;;;8.50;99.90;;;;;;5004035;28;20389;-90
2023/10/20 06:06:33;;;;;;;;;;;8.50;99.90;;;;;;5015965;28;20109;-89
2023/10/20 06:08:59;;;;;;;22.25;13.20;;;8.50;99.90;;;;;;4995932;28;19925;-90
2023/10/20 06:11:25;;;;;;;22.00;13.93;;;8.50;99.90;;;;;;5004434;28;20125;-89
2023/10/20 06:13:50;;;;;;;20.27;13.48;;;8.50;99.90;;;;;;4994113;28;20077;-90
2023/10/20 06:16:16;;;;;;;19.92;13.27;;;8.50;99.90;;;;;;5009058;28;20050;-89
2023/10/20 06:18:42;;;;;;;21.50;13.02;;;8.50;99.90;;;;;;4994321;28;20042;-89
2023/10/20 06:21:16;;;;;;;21.42;12.98;;;8.50;99.90;;;;;;4992217;28;20053;-90
2023/10/20 06:23:42;;;;;;;17.48;11.90;;;8.40;99.90;;;;;;5001709;28;20066;-91
2023/10/20 06:26:08;;;;;;;19.00;12.70;;;8.50;99.90;;;;;;4994367;28;20034;-89
2023/10/20 06:28:34;;;;;;;18.55;12.82;;;8.50;99.90;;;;;;5011217;28;20041;-91
2023/10/20 06:31:26;;;;;;;19.67;12.32;;;8.50;99.90;;;;;;5022247;28;20045;-90
2023/10/20 06:33:54;;;;;;;20.85;12.15;;;8.50;99.90;;;;;;5018574;28;20445;-90
2023/10/20 06:36:25;;;;;;;17.25;11.55;;;8.50;99.90;;;;;;5007547;28;20127;-89
2023/10/20 06:38:51;;;;;;;17.17;11.25;;;8.50;99.90;;;;;;5002488;28;20065;-89
2023/10/20 06:41:16;;;;;;;19.10;12.18;;;8.50;99.90;;;;;;4997927;28;20037;-90
2023/10/20 06:43:43;;;;;;;17.85;11.93;;;8.50;99.90;;;;;;4999413;28;20048;-89
2023/10/20 06:46:09;;;;;;;17.13;11.80;;;8.50;99.90;;;;;;4997275;28;20046;-89
2023/10/20 06:48:36;;;;;;;19.90;12.95;;;8.50;99.90;;;;;;4999892;28;20081;-87
2023/10/20 06:51:02;;;;;;;15.23;11.05;;;8.50;99.90;;;;;;4998412;28;20053;-87
2023/10/20 06:53:28;;;;;;;16.85;11.35;;;8.50;99.90;;;;;;5008865;28;20413;-88
2023/10/20 06:55:55;;;;;;;19.20;12.15;;;8.50;99.90;;;;;;5011175;28;20152;-81
2023/10/20 06:58:21;;;;;;;17.65;11.13;;;8.50;99.90;;;;;;5005486;28;20038;-82
2023/10/20 07:00:47;;;;;;;17.45;11.68;;;8.50;99.90;;;;;;5004323;28;20412;-78
2023/10/20 07:03:13;;;;;;;15.70;11.07;;;8.50;99.90;;;;;;5010298;28;20389;-78
2023/10/20 07:05:40;;;;;;;17.35;11.20;;;8.50;99.90;;;;;;4996346;28;20050;-78
2023/10/20 07:08:06;;;;;;;17.38;11.43;;;8.50;99.90;;;;;;5007858;28;20046;-79
2023/10/20 07:10:39;;;;;;;16.00;11.00;;;8.40;99.90;;;;;;4988090;28;20587;-80
2023/10/20 07:13:10;;;;;;;16.98;11.25;;;8.50;99.90;;;;;;4991718;28;20050;-79
2023/10/20 07:15:36;;;;;;;15.98;11.15;;;8.40;99.90;;;;;;5024513;28;20055;-72
2023/10/20 07:18:03;;;;;;;20.00;11.45;;;8.40;99.90;;;;;;5103343;27;20054;-83
2023/10/20 07:20:30;;;;;;;18.15;11.32;;;8.40;99.90;;;;;;5009512;28;20095;-85
2023/10/20 07:22:57;;;;;;;17.20;11.63;;;8.40;99.90;;;;;;5003552;28;20046;-84
2023/10/20 07:25:22;;;;;;;16.85;11.05;;;8.40;99.90;;;;;;4995842;28;20034;-84
2023/10/20 07:27:48;;;;;;;16.95;11.10;;;8.40;99.90;;;;;;4988911;28;20370;-82
2023/10/20 07:30:16;;;;;;;18.75;10.90;;;8.40;99.90;;;;;;4986964;28;20420;-75
2023/10/20 07:32:43;;;;;;;15.85;10.73;;;8.40;99.90;;;;;;4988775;28;20065;-84
2023/10/20 07:35:11;;;;;;;17.80;11.05;;;8.40;99.90;;;;;;4999924;28;20046;-83
2023/10/20 07:37:37;;;;;;;14.88;10.27;;;8.40;99.90;;;;;;5000877;28;20076;-82
2023/10/20 07:40:04;;;;;;;14.73;10.10;;;8.40;99.90;;;;;;5008360;28;20049;-80
2023/10/20 07:42:31;;;;;;;16.20;10.05;;;8.40;99.90;;;;;;5006114;28;20141;-80
2023/10/20 07:44:58;;;;;;;13.98;9.43;;;8.40;99.90;;;;;;4997823;28;20057;-81
2023/10/20 07:47:24;;;;;;;12.63;8.98;;;8.40;99.90;;;;;;5003645;28;20058;-86
2023/10/20 07:49:51;;;;;;;13.57;8.55;;;8.40;99.90;;;;;;5003624;28;20185;-81
2023/10/20 07:52:17;;;;;;;12.85;8.45;;;8.40;99.90;;;;;;5015391;28;20122;-81
2023/10/20 07:54:43;;;;;;;13.43;9.13;;;8.40;99.90;;;;;;4989904;28;20046;-85
2023/10/20 07:57:10;;;;;;;13.13;10.60;;;8.40;99.90;;;;;;4990603;28;20057;-84
2023/10/20 07:59:36;;;;;;;13.82;8.50;;;8.40;99.90;;;;;;4992653;28;20050;-84
2023/10/20 08:02:05;;;;;;;12.00;8.00;;;8.40;99.90;;;;;;4996611;28;20090;-78
2023/10/20 08:04:32;;;;;;;11.73;7.45;;;8.40;99.90;;;;;;4995869;28;20043;-89
2023/10/20 08:06:59;;;;;;;10.63;7.88;;;8.40;99.90;;;;;;4998650;28;20053;-86
2023/10/20 08:09:26;;;;;;;10.27;6.85;;;8.40;99.90;;;;;;5007845;28;20046;-85
2023/10/20 08:11:51;;;;;;;10.88;7.35;;;8.40;99.90;;;;;;4999605;28;20127;-82
2023/10/20 08:14:20;;;;;;;9.80;6.70;;;8.40;99.90;;;;;;5014747;28;20055;-87
2023/10/20 08:16:46;;;;;;;10.10;6.70;;;8.40;99.90;;;;;;4999605;28;20065;-83
2023/10/20 08:19:12;;;;;;;8.35;6.00;;;8.40;99.90;;;;;;5096905;27;20034;-82
2023/10/20 08:21:37;;;;;;;8.38;6.32;;;8.40;99.90;;;;;;5000809;28;20451;-83
2023/10/20 08:24:04;;;;;;;9.07;5.82;;;8.40;99.90;;;;;;4997294;28;20098;-81
2023/10/20 08:26:31;;;;;;;6.20;4.90;;;8.40;99.90;;;;;;5001615;28;20096;-79
2023/10/20 08:28:57;;;;;;;7.65;4.75;;;8.40;99.90;;;;;;4997992;28;20053;-84
2023/10/20 08:31:23;;;;;;;6.63;4.63;;;8.40;99.90;;;;;;5008624;28;20058;-85
2023/10/20 08:33:51;;;;;;;6.55;4.32;;;8.40;99.90;;;;;;5002886;28;20118;-81
2023/10/20 08:36:20;;;;;;;6.90;4.32;;;8.40;99.90;;;;;;5006014;28;20137;-84
2023/10/20 08:38:48;;;;;;;6.20;4.20;;;8.40;99.90;;;;;;5035054;28;20049;-84
2023/10/20 08:41:16;;;;;;;5.53;4.30;;;8.40;99.90;;;;;;5004770;28;20063;-84
2023/10/20 08:43:43;;;;;;;5.30;4.22;;;8.40;99.90;;;;;;4990988;28;20078;-83
2023/10/20 08:46:10;;;;;;;8.52;4.30;;;8.40;99.90;;;;;;5000043;28;20505;-81
2023/10/20 08:48:42;;;;;;;6.05;3.92;;;8.40;99.90;;;;;;5098591;27;20143;-83
2023/10/20 08:51:11;;;;;;;4.78;4.07;;;8.40;99.90;;;;;;5002211;28;20077;-83
2023/10/20 08:53:39;;;;;;;6.32;4.25;;;8.40;99.90;;;;;;5014558;28;20055;-86
2023/10/20 08:56:07;;;;;;;5.68;4.00;;;8.40;99.90;;;;;;5009610;28;20053;-82
2023/10/20 08:58:33;;;;;;;5.15;3.70;;;8.40;99.90;;;;;;4994985;28;20058;-80
2023/10/20 09:01:00;;;;;;;5.82;4.78;;;8.40;99.90;;;;;;5007013;28;20042;-87
2023/10/20 09:03:27;;;;;;;6.30;4.27;;;8.40;99.90;;;;;;5015366;28;20048;-74
2023/10/20 09:06:06;;;;;;;4.75;3.70;;;8.40;99.90;;;;;;4994925;28;20328;-85
2023/10/20 09:08:33;;;;;;;5.25;3.80;;;8.40;99.90;;;;;;5003623;28;20041;-81
2023/10/20 09:10:58;;;;;;;3.58;2.75;;;8.40;99.90;;;;;;4995917;28;20043;-77
2023/10/20 09:13:37;;;;;;;3.53;2.80;;;8.40;99.90;;;;;;5000838;28;20076;-83
2023/10/20 09:16:07;;;;;;;3.72;2.80;;;8.40;99.90;;;;;;5003468;28;20089;-78
2023/10/20 09:18:53;;;;;;;5.30;3.20;;;8.40;99.90;;;;;;4994936;28;20050;-83
2023/10/20 09:21:21;;;;;;;4.53;2.95;;;8.40;99.90;;;;;;4987260;28;20092;-84
2023/10/20 09:23:59;;;;;;;4.38;2.72;;;8.40;99.90;;;;;;4991960;28;20038;-82
2023/10/20 09:26:26;;;;;;;3.38;2.75;;;8.30;99.90;;;;;;5003721;28;20049;-87
2023/10/20 09:28:56;;;;;;;;;;;8.40;99.90;;;;;;5009307;28;20050;-85
2023/10/20 09:31:23;;;;;;;3.75;2.47;;;8.30;99.90;;;;;;4999705;28;19922;-86
2023/10/20 09:33:49;;;;;;;2.17;1.98;;;8.40;99.90;;;;;;5002446;28;20050;-78
2023/10/20 09:36:15;;;;;;;3.20;2.58;;;8.40;99.90;;;;;;5001210;28;20054;-77
2023/10/20 09:38:49;;;;;;;3.13;2.40;;;8.40;99.90;;;;;;4995501;28;20042;-77
2023/10/20 09:41:17;;;;;;;4.00;2.00;;;8.40;99.90;;;;;;5012747;28;20054;-84
2023/10/20 09:43:53;;;;;;;3.22;2.33;;;8.40;99.90;;;;;;5004742;28;20499;-84
2023/10/20 09:46:40;;;;;;;2.65;1.92;;;8.40;99.90;;;;;;5001295;28;20678;-83
2023/10/20 09:49:19;;;;;;;2.35;1.98;;;8.30;99.90;;;;;;4999727;28;20051;-83
2023/10/20 09:51:47;;;;;;;2.45;1.60;;;8.30;99.90;;;;;;5092509;28;20105;-83
2023/10/20 09:54:14;;;;;;;2.03;1.70;;;8.30;99.90;;;;;;4997883;28;20046;-84
2023/10/20 09:56:43;;;;;;;2.00;1.55;;;8.30;99.90;;;;;;5000420;28;20100;-83
2023/10/20 09:59:09;;;;;;;3.28;1.70;;;8.30;99.90;;;;;;5003410;28;20101;-85
2023/10/20 10:01:38;;;;;;;2.05;1.50;;;8.30;99.90;;;;;;5014386;28;20045;-84
2023/10/20 10:04:05;;;;;;;3.47;1.85;;;8.30;99.90;;;;;;5003562;28;20046;-81
2023/10/20 10:06:38;;;;;;;4.15;2.10;;;8.30;99.90;;;;;;5016140;28;20046;-85
2023/10/20 10:09:07;;;;;;;2.03;1.77;;;8.30;99.90;;;;;;5007858;28;20081;-78
2023/10/20 10:11:39;;;;;;;2.53;1.85;;;8.30;99.90;;;;;;5017200;28;20041;-85
2023/10/20 10:14:05;;;;;;;3.50;1.75;;;8.30;99.90;;;;;;5010017;28;20134;-80
2023/10/20 10:16:32;;;;;;;2.25;1.85;;;8.30;99.90;;;;;;4986425;28;20046;-83
2023/10/20 10:19:08;;;;;;;2.10;1.80;;;8.30;99.90;;;;;;4999265;28;20067;-80
2023/10/20 10:21:39;;;;;;;3.58;1.70;;;8.30;99.90;;;;;;4992274;28;20061;-82
2023/10/20 10:24:13;;;;;;;1.30;1.20;;;8.30;99.90;;;;;;5001513;28;20390;-81
2023/10/20 10:27:05;;;;;;;2.10;1.30;;;8.20;99.90;;;;;;4984988;28;20046;-79
2023/10/20 10:29:53;;;;;;;1.45;1.35;;;8.20;99.90;;;;;;5000163;28;20144;-84
2023/10/20 10:32:20;;;;;;;2.70;1.33;;;8.20;99.90;;;;;;5010339;28;20053;-79
2023/10/20 10:34:48;;;;;;;2.30;1.38;;;8.20;99.90;;;;;;5089802;28;20565;-83
2023/10/20 10:37:28;;;;;;;;;;;8.20;99.90;;;;;;5019949;28;20151;-82
2023/10/20 10:40:07;;;;;;;1.63;1.10;;;8.20;99.90;;;;;;4990175;28;19966;-79
2023/10/20 10:42:40;;;;;;;1.55;1.17;;;8.20;99.90;;;;;;5002645;28;20120;-76
2023/10/20 10:45:34;;;;;;;1.23;1.10;;;8.20;99.90;;;;;;5032424;28;20036;-80
2023/10/20 10:48:08;;;;;;;1.40;1.13;;;8.20;99.90;;;;;;4999430;28;20050;-81
2023/10/20 10:50:40;;;;;;;1.38;1.00;;;8.20;99.90;;;;;;5103572;28;20050;-83
2023/10/20 10:53:07;;;;;;;2.08;1.00;;;8.20;99.90;;;;;;4992454;28;20046;-78
2023/10/20 10:55:35;;;;;;;2.28;0.82;;;8.20;99.90;;;;;;5096802;27;20042;-80
2023/10/20 10:58:02;;;;;;;2.60;0.75;;;8.20;99.90;;;;;;4995824;28;20050;-79
2023/10/20 11:00:29;;;;;;;1.47;0.80;;;8.20;99.90;;;;;;4995452;28;20038;-83
2023/10/20 11:02:57;;;;;;;1.77;0.90;;;8.20;99.90;;;;;;4998376;28;20497;-82
2023/10/20 11:05:24;;;;;;;1.15;0.80;;;8.20;99.90;;;;;;4995970;28;20087;-80
2023/10/20 11:08:07;;;;;;;0.70;0.70;;;8.20;99.90;;;;;;4998813;28;20057;-84
2023/10/20 11:10:36;;;;;;;1.30;0.90;;;8.20;99.90;;;;;;4989544;28;20578;-79
2023/10/20 11:13:10;;;;;;;1.58;0.90;;;8.20;99.90;;;;;;5007053;28;20045;-78
2023/10/20 11:15:37;;;;;;;1.30;1.00;;;8.20;99.90;;;;;;5004781;28;20046;-77
2023/10/20 11:18:05;;;;;;;0.93;0.80;;;8.20;99.90;;;;;;4998634;28;20046;-81
2023/10/20 11:20:37;;;;;;;2.25;0.90;;;8.20;99.90;;;;;;5010899;28;20052;-79
2023/10/20 11:23:07;;;;;;;1.55;0.80;;;8.20;99.90;;;;;;5098256;27;20121;-81
2023/10/20 11:25:33;;;;;;;1.80;0.70;;;8.20;99.90;;;;;;5002503;28;20460;-81
2023/10/20 11:27:59;;;;;;;1.05;0.88;;;8.20;99.90;;;;;;5097519;27;20042;-83
2023/10/20 11:30:34;;;;;;;1.88;0.85;;;8.20;99.90;;;;;;5005109;28;20057;-79
2023/10/20 11:33:00;;;;;;;1.17;1.00;;;8.20;99.90;;;;;;4994178;28;20086;-82
2023/10/20 11:35:26;;;;;;;1.08;0.93;;;8.20;99.90;;;;;;5009047;28;20121;-83
2023/10/20 11:37:53;;;;;;;0.80;0.70;;;8.10;99.90;;;;;;5012211;28;20050;-84
2023/10/20 11:40:19;;;;;;;2.40;1.20;;;8.20;99.90;;;;;;4989777;28;20496;-85
2023/10/20 11:42:45;;;;;;;1.00;0.90;;;8.10;99.90;;;;;;5005307;28;20125;-85
2023/10/20 11:45:11;;;;;;;2.70;1.40;;;8.10;99.90;;;;;;4994176;28;20157;-84
2023/10/20 11:47:38;;;;;;;3.95;2.20;;;8.10;99.90;;;;;;4995496;28;20174;-79
2023/10/20 11:50:05;;;;;;;2.75;1.65;;;8.10;99.90;;;;;;4998098;28;20046;-81
2023/10/20 11:52:40;;;;;;;2.67;1.70;;;8.10;99.90;;;;;;5008272;28;20219;-81
2023/10/20 11:55:08;;;;;;;1.92;1.30;;;8.10;99.90;;;;;;4996715;28;20045;-77
2023/10/20 11:57:38;;;;;;;1.20;1.00;;;8.20;99.90;;;;;;4989058;28;20049;-78
2023/10/20 12:00:09;;;;;;;1.33;1.13;;;8.10;99.90;;;;;;5000599;28;20053;-78
2023/10/20 12:02:40;;;;;;;0.85;0.80;;;8.10;99.90;;;;;;4995234;28;20041;-79
2023/10/20 12:05:07;;;;;;;1.42;1.02;;;8.20;99.90;;;;;;5005371;28;20066;-78
2023/10/20 12:07:33;;;;;;;4.18;2.38;;;8.20;99.90;;;;;;4999873;28;20050;-79
2023/10/20 12:09:59;;;;;;;8.52;4.35;;;8.20;99.90;;;;;;5005030;28;20084;-82
2023/10/20 12:12:25;;;;;;;6.88;4.13;;;8.10;99.90;;;;;;5008176;28;20078;-79
2023/10/20 12:14:51;;;;;;;3.72;2.08;;;8.10;99.90;;;;;;5006843;28;20099;-80
2023/10/20 12:17:17;;;;;;;1.42;1.10;;;8.20;99.90;;;;;;5006994;28;20049;-80
2023/10/20 12:19:43;;;;;;;0.60;0.60;;;8.10;99.90;;;;;;4995193;28;20053;-80
2023/10/20 12:22:09;;;;;;;1.25;1.00;;;8.10;99.90;;;;;;4992627;28;20404;-79
2023/10/20 12:24:35;;;;;;;1.23;0.88;;;8.10;99.90;;;;;;4995050;28;20130;-81
2023/10/20 12:27:01;;;;;;;0.88;0.82;;;8.20;99.90;;;;;;5097267;27;20046;-81
2023/10/20 12:29:28;;;;;;;1.42;0.80;;;8.10;99.90;;;;;;4995099;28;20050;-77
2023/10/20 12:31:54;;;;;;;0.90;0.60;;;8.20;99.90;;;;;;5001336;28;20547;-85
2023/10/20 12:34:20;;;;;;;1.35;0.55;;;8.10;99.90;;;;;;5014542;28;20093;-85
2023/10/20 12:36:48;;;;;;;0.75;0.70;;;8.10;99.90;;;;;;5003212;28;20054;-84
2023/10/20 12:39:20;;;;;;;0.63;0.57;;;8.10;99.90;;;;;;4995626;28;20490;-83
2023/10/20 12:41:46;;;;;;;0.77;0.75;;;8.10;99.90;;;;;;4998291;28;20615;-83
2023/10/20 12:44:13;;;;;;;1.08;0.70;;;8.10;99.90;;;;;;5104313;27;20253;-82
2023/10/20 12:46:40;;;;;;;1.15;0.63;;;8.10;99.90;;;;;;4998688;28;20497;-81
2023/10/20 12:49:06;;;;;;;1.38;0.75;;;8.10;99.90;;;;;;5098790;27;20042;-85
2023/10/20 12:51:33;;;;;;;0.70;0.70;;;8.10;99.90;;;;;;5002595;28;20262;-83
2023/10/20 12:53:59;;;;;;;0.70;0.70;;;8.10;99.90;;;;;;5002739;28;20042;-81
2023/10/20 12:56:26;;;;;;;0.80;0.60;;;8.10;99.90;;;;;;4996159;28;20057;-83
2023/10/20 12:58:52;;;;;;;0.77;0.60;;;8.10;99.90;;;;;;4986741;28;20038;-78
2023/10/20 13:01:17;;;;;;;1.13;0.82;;;8.10;99.90;;;;;;4988833;28;20052;-83
2023/10/20 13:03:43;;;;;;;0.93;0.80;;;8.10;99.90;;;;;;4989685;28;20050;-83
2023/10/20 13:06:09;;;;;;;1.70;0.70;;;8.10;99.90;;;;;;5018742;28;20056;-84
2023/10/20 13:08:35;;;;;;;2.25;0.73;;;8.10;99.90;;;;;;5009408;28;20099;-84
2023/10/20 13:11:00;;;;;;;3.15;1.55;;;8.10;99.90;;;;;;4993133;28;20077;-84
2023/10/20 13:13:27;;;;;;;2.22;1.50;;;8.00;99.90;;;;;;4995189;28;20053;-85
2023/10/20 13:15:53;;;;;;;1.08;0.95;;;8.10;99.90;;;;;;5001337;28;20071;-82